createdAt,value
2022-10-14T00:00:52.866Z,4.47
2022-10-14T00:03:20.520Z,4.53
2022-10-14T00:05:49.126Z,4.80
2022-10-14T00:08:16.812Z,4.30
2022-10-14T00:10:46.002Z,4.10
2022-10-14T00:13:13.797Z,4.60
2022-10-14T00:15:42.423Z,4.13
2022-10-14T00:18:10.833Z,4.50
2022-10-14T00:20:38.525Z,4.33
2022-10-14T00:23:06.370Z,3.90
2022-10-14T00:25:38.943Z,3.47
2022-10-14T00:28:07.951Z,3.93
2022-10-14T00:30:35.812Z,4.53
2022-10-14T00:33:04.220Z,3.90
2022-10-14T00:35:32.859Z,3.90
2022-10-14T00:38:00.890Z,3.30
2022-10-14T00:40:28.655Z,4.20
2022-10-14T00:42:56.322Z,4.20
2022-10-14T00:45:26.946Z,3.50
2022-10-14T00:47:55.823Z,3.77
2022-10-14T00:50:24.215Z,3.30
2022-10-14T00:52:52.598Z,3.77
2022-10-14T00:55:20.727Z,3.03
2022-10-14T00:57:48.454Z,3.00
2022-10-14T01:00:19.577Z,3.47
2022-10-14T01:02:50.231Z,3.90
2022-10-14T01:05:20.095Z,3.27
2022-10-14T01:08:06.617Z,3.03
2022-10-14T01:10:40.772Z,3.73
2022-10-14T01:13:26.452Z,3.23
2022-10-14T01:16:03.823Z,4.20
2022-10-14T01:18:49.115Z,3.40
2022-10-14T01:21:22.467Z,3.30
2022-10-14T01:24:21.036Z,3.83
2022-10-14T01:27:12.730Z,2.43
2022-10-14T01:30:02.139Z,3.63
2022-10-14T01:32:33.488Z,3.53
2022-10-14T01:35:11.392Z,2.53
2022-10-14T01:37:47.149Z,2.30
2022-10-14T01:40:22.344Z,2.67
2022-10-14T01:42:51.260Z,2.20
2022-10-14T01:45:22.793Z,2.30
2022-10-14T01:47:52.420Z,3.43
2022-10-14T01:50:23.566Z,1.70
2022-10-14T01:52:56.705Z,2.33
2022-10-14T01:55:27.001Z,2.30
2022-10-14T01:57:58.636Z,4.53
2022-10-14T02:00:28.040Z,1.50
2022-10-14T02:02:55.792Z,1.87
2022-10-14T02:05:29.533Z,1.97
2022-10-14T02:08:04.286Z,1.60
2022-10-14T02:10:47.638Z,1.97
2022-10-14T02:13:30.224Z,1.83
2022-10-14T02:16:11.075Z,2.07
2022-10-14T02:18:42.257Z,1.90
2022-10-14T02:21:22.186Z,2.17
2022-10-14T02:23:55.935Z,1.90
2022-10-14T02:26:25.589Z,1.77
2022-10-14T02:28:54.643Z,2.10
2022-10-14T02:31:25.932Z,1.50
2022-10-14T02:33:58.124Z,1.80
2022-10-14T02:36:27.998Z,2.40
2022-10-14T02:38:58.618Z,1.93
2022-10-14T02:41:31.172Z,2.23
2022-10-14T02:44:00.957Z,1.90
2022-10-14T02:46:30.446Z,2.13
2022-10-14T02:48:58.152Z,2.07
2022-10-14T02:51:26.052Z,2.33
2022-10-14T02:53:53.721Z,2.40
2022-10-14T02:56:21.440Z,2.37
2022-10-14T02:58:49.099Z,2.00
2022-10-14T03:01:16.955Z,2.37
2022-10-14T03:03:46.387Z,2.30
2022-10-14T03:06:14.118Z,2.00
2022-10-14T03:08:42.114Z,2.37
2022-10-14T03:11:10.172Z,2.80
2022-10-14T03:13:37.969Z,2.00
2022-10-14T03:16:06.470Z,2.07
2022-10-14T03:18:40.019Z,2.40
2022-10-14T03:21:19.490Z,2.37
2022-10-14T03:23:48.830Z,2.67
2022-10-14T03:26:16.485Z,2.10
2022-10-14T03:28:47.394Z,1.90
2022-10-14T03:31:20.872Z,3.10
2022-10-14T03:34:06.678Z,3.03
2022-10-14T03:36:37.532Z,2.70
2022-10-14T03:39:06.113Z,3.23
2022-10-14T03:41:45.546Z,3.90
2022-10-14T03:44:16.900Z,2.80
2022-10-14T03:47:04.711Z,2.60
2022-10-14T03:49:34.082Z,3.27
2022-10-14T03:52:11.206Z,3.30
2022-10-14T03:54:40.813Z,3.20
2022-10-14T03:57:08.869Z,3.40
2022-10-14T03:59:43.297Z,2.87
2022-10-14T04:02:12.099Z,4.00
2022-10-14T04:04:41.980Z,3.30
2022-10-14T04:07:11.395Z,3.00
2022-10-14T04:09:40.618Z,3.60
2022-10-14T04:12:09.867Z,3.00
2022-10-14T04:14:49.657Z,2.43
2022-10-14T04:17:17.650Z,3.10
2022-10-14T04:19:45.727Z,2.90
2022-10-14T04:22:18.091Z,2.87
2022-10-14T04:24:50.625Z,3.07
2022-10-14T04:27:18.514Z,3.03
2022-10-14T04:29:51.206Z,3.20
2022-10-14T04:32:26.240Z,3.00
2022-10-14T04:34:54.942Z,3.13
2022-10-14T04:37:26.737Z,3.00
2022-10-14T04:40:03.410Z,3.07
2022-10-14T04:42:32.298Z,3.33
2022-10-14T04:45:04.338Z,3.20
2022-10-14T04:47:48.477Z,2.87
2022-10-14T04:50:19.844Z,2.90
2022-10-14T04:53:13.099Z,2.80
2022-10-14T04:55:51.596Z,2.50
2022-10-14T04:58:19.571Z,2.63
2022-10-14T05:00:48.827Z,3.20
2022-10-14T05:03:49.225Z,2.73
2022-10-14T05:06:18.116Z,3.03
2022-10-14T05:08:48.886Z,2.70
2022-10-14T05:11:16.851Z,2.73
2022-10-14T05:13:51.772Z,3.53
2022-10-14T05:16:19.620Z,3.70
2022-10-14T05:18:47.275Z,3.00
2022-10-14T05:21:15.389Z,2.70
2022-10-14T05:24:08.005Z,3.13
2022-10-14T05:26:38.671Z,3.10
2022-10-14T05:29:11.463Z,3.03
2022-10-14T05:31:40.533Z,3.37
2022-10-14T05:34:20.902Z,3.63
2022-10-14T05:36:48.650Z,3.50
2022-10-14T05:39:18.787Z,3.40
2022-10-14T05:41:46.668Z,3.60
2022-10-14T05:44:18.106Z,4.17
2022-10-14T05:46:47.098Z,3.90
2022-10-14T05:49:15.909Z,2.93
2022-10-14T05:51:44.753Z,3.70
2022-10-14T05:54:21.097Z,3.30
2022-10-14T05:56:51.888Z,3.63
2022-10-14T05:59:20.310Z,3.20
2022-10-14T06:01:48.134Z,4.00
2022-10-14T06:04:18.339Z,3.80
2022-10-14T06:06:46.163Z,3.37
2022-10-14T06:09:16.010Z,4.70
2022-10-14T06:11:45.625Z,3.23
2022-10-14T06:14:13.618Z,2.90
2022-10-14T06:16:41.743Z,3.60
2022-10-14T06:19:09.571Z,3.43
2022-10-14T06:21:37.882Z,3.37
2022-10-14T06:24:05.869Z,3.07
2022-10-14T06:26:33.591Z,3.00
2022-10-14T06:29:02.692Z,3.23
2022-10-14T06:31:32.495Z,2.60
2022-10-14T06:34:00.593Z,3.23
2022-10-14T06:36:28.279Z,2.83
2022-10-14T06:38:56.029Z,2.37
2022-10-14T06:41:24.206Z,3.20
2022-10-14T06:43:51.903Z,3.10
2022-10-14T06:46:20.991Z,3.13
2022-10-14T06:48:50.433Z,2.57
2022-10-14T06:51:18.336Z,3.13
2022-10-14T06:53:46.112Z,3.30
2022-10-14T06:56:13.909Z,3.10
2022-10-14T06:58:41.636Z,3.33
2022-10-14T07:01:10.047Z,3.27
2022-10-14T07:03:40.054Z,2.53
2022-10-14T07:06:09.075Z,3.77
2022-10-14T07:08:36.782Z,3.30
2022-10-14T07:11:04.976Z,3.43
2022-10-14T07:13:34.161Z,3.00
2022-10-14T07:16:02.165Z,3.80
2022-10-14T07:18:29.822Z,3.40
2022-10-14T07:21:02.894Z,3.60
2022-10-14T07:23:30.549Z,2.83
2022-10-14T07:25:58.228Z,2.53
2022-10-14T07:28:26.186Z,2.90
2022-10-14T07:31:01.859Z,3.33
2022-10-14T07:33:29.839Z,2.80
2022-10-14T07:36:01.929Z,2.60
2022-10-14T07:38:29.901Z,2.30
2022-10-14T07:40:59.541Z,2.47
2022-10-14T07:43:27.263Z,2.30
2022-10-14T07:46:00.379Z,2.30
2022-10-14T07:48:33.004Z,1.77
2022-10-14T07:51:14.172Z,1.30
2022-10-14T07:53:41.867Z,1.30
2022-10-14T07:56:09.815Z,1.17
2022-10-14T07:58:41.040Z,1.60
2022-10-14T08:01:12.088Z,2.10
2022-10-14T08:03:39.848Z,1.27
2022-10-14T08:06:07.898Z,1.23
2022-10-14T08:08:37.262Z,1.00
2022-10-14T08:11:07.683Z,0.93
2022-10-14T08:13:36.267Z,1.40
2022-10-14T08:16:04.510Z,2.07
2022-10-14T08:18:32.206Z,1.43
2022-10-14T08:20:59.845Z,0.90
2022-10-14T08:23:27.503Z,1.40
2022-10-14T08:25:56.506Z,1.00
2022-10-14T08:28:24.201Z,1.00
2022-10-14T08:30:52.807Z,1.57
2022-10-14T08:33:20.758Z,1.00
2022-10-14T08:35:53.117Z,0.90
2022-10-14T08:38:25.113Z,1.80
2022-10-14T08:41:04.093Z,1.80
2022-10-14T08:43:37.205Z,0.90
2022-10-14T08:46:14.734Z,1.53
2022-10-14T08:48:42.724Z,1.33
2022-10-14T08:51:14.847Z,1.10
2022-10-14T08:53:46.921Z,1.20
2022-10-14T08:56:16.860Z,1.00
2022-10-14T08:58:48.347Z,0.90
2022-10-14T09:01:20.561Z,1.67
2022-10-14T09:03:48.453Z,0.90
2022-10-14T09:06:23.457Z,1.07
2022-10-14T09:08:53.839Z,1.03
2022-10-14T09:11:25.093Z,0.70
2022-10-14T09:13:55.551Z,0.77
2022-10-14T09:16:26.190Z,1.07
2022-10-14T09:18:56.581Z,0.90
2022-10-14T09:21:51.851Z,0.63
2022-10-14T09:24:22.113Z,0.70
2022-10-14T09:26:55.048Z,0.70
2022-10-14T09:29:27.150Z,0.63
2022-10-14T09:31:58.344Z,1.07
2022-10-14T09:34:31.221Z,0.50
2022-10-14T09:37:07.439Z,0.60
2022-10-14T09:39:39.935Z,0.60
2022-10-14T09:42:16.450Z,0.40
2022-10-14T09:44:44.094Z,0.47
2022-10-14T09:47:16.162Z,0.87
2022-10-14T09:49:47.370Z,0.70
2022-10-14T09:52:23.913Z,0.50
2022-10-14T09:54:56.162Z,0.70
2022-10-14T09:57:26.577Z,0.80
2022-10-14T09:59:57.481Z,0.57
2022-10-14T10:02:35.784Z,1.63
2022-10-14T10:05:13.183Z,1.10
2022-10-14T10:07:40.854Z,0.40
2022-10-14T10:10:19.582Z,0.73
2022-10-14T10:12:48.752Z,0.70
2022-10-14T10:15:21.166Z,0.70
2022-10-14T10:17:50.187Z,0.60
2022-10-14T10:20:28.309Z,0.70
2022-10-14T10:22:56.706Z,0.40
2022-10-14T10:25:27.975Z,0.50
2022-10-14T10:28:01.185Z,0.77
2022-10-14T10:30:32.226Z,0.80
2022-10-14T10:33:25.886Z,0.60
2022-10-14T10:36:06.986Z,1.20
2022-10-14T10:38:45.410Z,0.47
2022-10-14T10:41:30.629Z,0.60
2022-10-14T10:44:15.045Z,0.87
2022-10-14T10:47:16.133Z,0.80
2022-10-14T10:50:00.696Z,0.50
2022-10-14T10:52:42.664Z,0.70
2022-10-14T10:55:19.307Z,0.73
2022-10-14T10:58:02.557Z,0.70
2022-10-14T11:00:44.008Z,0.50
2022-10-14T11:03:29.137Z,1.47
2022-10-14T11:06:03.885Z,0.80
2022-10-14T11:09:03.013Z,0.80
2022-10-14T11:11:52.332Z,0.50
2022-10-14T11:14:38.770Z,0.60
2022-10-14T11:17:15.600Z,1.23
2022-10-14T11:19:53.768Z,0.63
2022-10-14T11:22:50.772Z,0.70
2022-10-14T11:25:25.957Z,0.70
2022-10-14T11:28:03.363Z,0.70
2022-10-14T11:30:43.333Z,0.70
2022-10-14T11:33:29.301Z,0.70
2022-10-14T11:36:08.130Z,0.77
2022-10-14T11:38:53.898Z,0.50
2022-10-14T11:41:30.359Z,0.70
2022-10-14T11:44:03.273Z,0.87
2022-10-14T11:46:36.810Z,0.73
2022-10-14T11:49:15.171Z,1.10
2022-10-14T11:51:48.519Z,0.70
2022-10-14T11:54:21.230Z,0.70
2022-10-14T11:56:53.797Z,1.17
2022-10-14T11:59:40.337Z,0.80
2022-10-14T12:02:34.583Z,0.50
2022-10-14T12:05:16.074Z,0.90
2022-10-14T12:07:51.158Z,0.77
2022-10-14T12:10:26.800Z,0.73
2022-10-14T12:12:56.669Z,1.10
2022-10-14T12:15:26.857Z,0.67
2022-10-14T12:17:57.727Z,0.70
2022-10-14T12:20:35.288Z,1.10
2022-10-14T12:23:06.142Z,0.83
2022-10-14T12:25:39.903Z,0.73
2022-10-14T12:28:08.960Z,0.63
2022-10-14T12:30:39.300Z,1.00
2022-10-14T12:33:09.014Z,0.93
2022-10-14T12:35:50.128Z,1.30
2022-10-14T12:38:20.123Z,0.90
2022-10-14T12:40:49.236Z,0.67
2022-10-14T12:43:21.537Z,1.00
2022-10-14T12:45:55.609Z,0.87
2022-10-14T12:48:25.266Z,0.80
2022-10-14T12:51:06.727Z,0.63
2022-10-14T12:53:35.579Z,0.57
2022-10-14T12:56:05.537Z,0.80
2022-10-14T12:58:37.193Z,0.57
2022-10-14T13:01:08.646Z,0.60
2022-10-14T13:03:44.056Z,0.80
2022-10-14T13:06:39.873Z,0.77
2022-10-14T13:09:35.942Z,0.87
2022-10-14T13:12:36.435Z,1.03
2022-10-14T13:15:06.246Z,0.80
2022-10-14T13:17:45.760Z,1.20
2022-10-14T13:20:52.393Z,0.97
2022-10-14T13:23:37.691Z,0.57
2022-10-14T13:26:25.029Z,1.03
2022-10-14T13:29:05.975Z,0.90
2022-10-14T13:31:40.633Z,1.07
2022-10-14T13:34:19.863Z,0.80
2022-10-14T13:37:02.617Z,0.67
2022-10-14T13:39:34.761Z,0.80
2022-10-14T13:42:03.726Z,0.90
2022-10-14T13:44:31.470Z,1.00
2022-10-14T13:47:02.405Z,0.77
2022-10-14T13:49:35.831Z,0.70
2022-10-14T13:52:06.593Z,1.23
2022-10-14T13:54:35.609Z,1.00
2022-10-14T13:57:42.742Z,1.03
2022-10-14T14:00:41.089Z,1.10
2022-10-14T14:02:48.998Z,0.87
2022-10-14T14:05:27.225Z,0.83
2022-10-14T14:11:15.117Z,1.00
2022-10-14T14:13:53.430Z,0.90
2022-10-14T14:16:26.419Z,1.50
2022-10-14T14:19:07.954Z,1.53
2022-10-14T14:21:36.395Z,1.80
2022-10-14T14:24:16.421Z,2.17
2022-10-14T14:26:54.755Z,1.50
2022-10-14T14:29:28.769Z,1.90
2022-10-14T14:32:07.071Z,1.30
2022-10-14T14:34:36.759Z,1.50
2022-10-14T14:37:43.532Z,1.70
2022-10-14T14:39:59.514Z,1.60
2022-10-14T14:42:33.376Z,1.57
2022-10-14T14:45:05.498Z,1.70
2022-10-14T14:47:34.248Z,2.00
2022-10-14T14:50:29.120Z,2.37
2022-10-14T14:52:52.601Z,1.40
2022-10-14T14:55:41.499Z,2.17
2022-10-14T14:58:25.724Z,1.60
2022-10-14T15:00:55.998Z,1.70
2022-10-14T15:03:24.807Z,1.80
2022-10-14T15:05:56.858Z,2.50
2022-10-14T15:08:28.719Z,1.90
2022-10-14T15:10:58.178Z,1.40
2022-10-14T15:13:48.672Z,2.20
2022-10-14T15:16:37.874Z,1.60
2022-10-14T15:19:14.892Z,2.00
2022-10-14T15:21:47.299Z,1.97
2022-10-14T15:24:18.469Z,2.07
2022-10-14T15:26:46.253Z,2.47
2022-10-14T15:32:07.612Z,2.37
2022-10-14T15:34:37.344Z,2.37
2022-10-14T15:37:05.062Z,2.90
2022-10-14T15:39:32.771Z,2.97
2022-10-14T15:42:01.674Z,2.40
2022-10-14T15:44:31.060Z,1.97
2022-10-14T15:47:16.434Z,1.63
2022-10-14T15:49:46.875Z,2.30
2022-10-14T15:52:16.423Z,3.37
2022-10-14T15:54:45.799Z,2.53
2022-10-14T15:57:16.700Z,2.77
2022-10-14T15:59:50.745Z,2.70
2022-10-14T16:02:24.120Z,3.27
2022-10-14T16:05:19.285Z,2.40
2022-10-14T16:07:40.821Z,3.20
2022-10-14T16:10:09.900Z,2.83
2022-10-14T16:12:37.588Z,2.83
2022-10-14T16:15:31.948Z,2.97
2022-10-14T16:17:59.650Z,3.13
2022-10-14T16:20:27.375Z,4.07
2022-10-14T16:22:55.286Z,3.60
2022-10-14T16:25:26.155Z,4.20
2022-10-14T16:27:53.832Z,3.83
2022-10-14T16:30:23.017Z,3.30
2022-10-14T16:32:51.302Z,2.83
2022-10-14T16:35:19.207Z,2.43
2022-10-14T16:37:46.964Z,3.27
2022-10-14T16:40:14.715Z,4.10
2022-10-14T16:42:42.532Z,4.27
2022-10-14T16:45:10.992Z,4.20
2022-10-14T16:47:40.713Z,3.83
2022-10-14T16:50:10.229Z,3.50
2022-10-14T16:52:52.228Z,3.57
2022-10-14T16:55:20.141Z,2.83
2022-10-14T16:57:48.359Z,2.60
2022-10-14T17:02:47.828Z,3.10
2022-10-14T17:05:16.150Z,3.13
2022-10-14T17:07:44.469Z,3.50
2022-10-14T17:10:12.644Z,3.10
2022-10-14T17:12:40.980Z,2.77
2022-10-14T17:15:09.413Z,3.47
2022-10-14T17:17:40.567Z,3.03
2022-10-14T17:20:10.642Z,2.87
2022-10-14T17:22:38.314Z,2.70
2022-10-14T17:25:08.350Z,2.50
2022-10-14T17:27:36.048Z,3.27
2022-10-14T17:30:03.770Z,2.17
2022-10-14T17:32:31.428Z,2.27
2022-10-14T17:34:59.086Z,2.37
2022-10-14T17:37:28.302Z,2.80
2022-10-14T17:39:55.987Z,2.37
2022-10-14T17:42:24.004Z,2.57
2022-10-14T17:44:53.261Z,2.87
2022-10-14T17:47:21.165Z,3.07
2022-10-14T17:49:50.348Z,2.60
2022-10-14T17:52:18.035Z,2.60
2022-10-14T17:54:47.269Z,3.27
2022-10-14T17:57:19.473Z,2.10
2022-10-14T17:59:47.571Z,3.13
2022-10-14T18:02:18.390Z,2.50
2022-10-14T18:04:46.177Z,3.10
2022-10-14T18:07:13.846Z,3.50
2022-10-14T18:09:43.386Z,2.80
2022-10-14T18:12:12.420Z,2.07
2022-10-14T18:14:40.702Z,2.20
2022-10-14T18:17:10.730Z,2.80
2022-10-14T18:19:39.039Z,2.10
2022-10-14T18:22:07.257Z,1.90
2022-10-14T18:24:38.419Z,1.83
2022-10-14T18:27:06.652Z,2.30
2022-10-14T18:29:35.827Z,2.40
2022-10-14T18:32:03.850Z,2.40
2022-10-14T18:34:32.006Z,2.40
2022-10-14T18:36:59.715Z,2.27
2022-10-14T18:39:27.635Z,1.97
2022-10-14T18:41:55.386Z,2.07
2022-10-14T18:44:23.286Z,2.40
2022-10-14T18:46:52.439Z,2.13
2022-10-14T18:49:20.302Z,2.20
2022-10-14T18:51:48.005Z,2.17
2022-10-14T18:54:17.568Z,2.57
2022-10-14T18:56:46.052Z,2.10
2022-10-14T18:59:16.020Z,2.23
2022-10-14T19:01:43.789Z,2.00
2022-10-14T19:04:15.226Z,1.23
2022-10-14T19:06:46.981Z,2.10
2022-10-14T19:09:14.814Z,2.47
2022-10-14T19:11:42.908Z,3.00
2022-10-14T19:14:10.788Z,2.57
2022-10-14T19:16:39.657Z,3.10
2022-10-14T19:19:11.595Z,3.33
2022-10-14T19:21:40.930Z,4.17
2022-10-14T19:24:09.112Z,3.40
2022-10-14T19:26:38.605Z,2.87
2022-10-14T19:29:10.519Z,2.37
2022-10-14T19:31:41.252Z,2.50
2022-10-14T19:34:11.653Z,2.60
2022-10-14T19:36:41.101Z,2.93
2022-10-14T19:39:11.156Z,2.57
2022-10-14T19:41:42.879Z,2.13
2022-10-14T19:44:11.662Z,2.20
2022-10-14T19:46:40.071Z,2.80
2022-10-14T19:49:07.801Z,2.50
2022-10-14T19:51:36.033Z,2.20
2022-10-14T19:54:05.347Z,2.40
2022-10-14T19:56:33.060Z,2.13
2022-10-14T19:59:01.714Z,2.30
2022-10-14T20:01:32.613Z,2.80
2022-10-14T20:04:01.945Z,1.83
2022-10-14T20:06:32.707Z,2.43
2022-10-14T20:09:00.492Z,2.37
2022-10-14T20:11:29.746Z,2.80
2022-10-14T20:13:57.456Z,2.20
2022-10-14T20:16:26.291Z,2.33
2022-10-14T20:18:53.938Z,2.60
2022-10-14T20:21:21.602Z,2.50
2022-10-14T20:23:49.226Z,2.33
2022-10-14T20:26:19.691Z,2.23
2022-10-14T20:28:49.262Z,2.30
2022-10-14T20:31:18.487Z,2.43
2022-10-14T20:33:46.550Z,2.00
2022-10-14T20:36:16.987Z,2.30
2022-10-14T20:38:45.437Z,2.40
2022-10-14T20:41:15.158Z,2.07
2022-10-14T20:43:44.084Z,2.10
2022-10-14T20:46:13.693Z,2.70
2022-10-14T20:48:41.637Z,2.30
2022-10-14T20:51:11.730Z,2.20
2022-10-14T20:56:13.912Z,2.67
2022-10-14T20:58:42.200Z,2.90
2022-10-14T21:01:12.693Z,2.30
2022-10-14T21:03:46.568Z,2.23
2022-10-14T21:06:16.483Z,1.87
2022-10-14T21:08:44.595Z,2.50
2022-10-14T21:11:15.288Z,2.07
2022-10-14T21:13:45.581Z,2.27
2022-10-14T21:16:16.397Z,2.00
2022-10-14T21:18:52.411Z,2.00
2022-10-14T21:21:23.592Z,1.87
2022-10-14T21:23:52.272Z,2.17
2022-10-14T21:26:19.965Z,2.03
2022-10-14T21:28:47.662Z,1.73
2022-10-14T21:31:18.923Z,1.50
2022-10-14T21:33:49.119Z,2.17
2022-10-14T21:36:17.803Z,1.50
2022-10-14T21:38:45.668Z,1.33
2022-10-14T21:41:13.460Z,1.57
2022-10-14T21:43:41.511Z,1.43
2022-10-14T21:46:11.827Z,2.40
2022-10-14T21:48:40.174Z,2.80
2022-10-14T21:51:11.684Z,2.00
2022-10-14T21:53:41.289Z,2.03
2022-10-14T21:56:09.993Z,2.13
2022-10-14T21:58:37.785Z,1.60
2022-10-14T22:01:07.974Z,1.43
2022-10-14T22:03:36.518Z,1.80
2022-10-14T22:06:06.667Z,1.63
2022-10-14T22:08:37.408Z,1.60
2022-10-14T22:11:06.676Z,1.87
2022-10-14T22:13:36.046Z,2.10
2022-10-14T22:16:03.706Z,2.57
2022-10-14T22:18:31.402Z,2.03
2022-10-14T22:21:05.221Z,1.63
2022-10-14T22:23:33.341Z,2.00
2022-10-14T22:26:04.428Z,1.80
2022-10-14T22:28:33.407Z,1.43
2022-10-14T22:31:05.239Z,2.17
2022-10-14T22:33:35.026Z,2.00
2022-10-14T22:36:07.395Z,1.63
2022-10-14T22:38:35.178Z,1.53
2022-10-14T22:41:05.218Z,1.53
2022-10-14T22:43:32.999Z,1.50
2022-10-14T22:46:01.812Z,2.10
2022-10-14T22:48:29.685Z,1.50
2022-10-14T22:50:57.394Z,2.27
2022-10-14T22:53:25.234Z,1.83
2022-10-14T22:55:53.225Z,1.53
2022-10-14T22:58:22.551Z,1.57
2022-10-14T23:00:50.230Z,1.20
2022-10-14T23:03:17.957Z,1.50
2022-10-14T23:05:45.697Z,1.83
2022-10-14T23:08:14.831Z,1.60
2022-10-14T23:10:43.205Z,1.90
2022-10-14T23:13:11.475Z,1.97
2022-10-14T23:15:40.513Z,1.70
2022-10-14T23:18:08.193Z,0.97
2022-10-14T23:20:37.084Z,1.60
2022-10-14T23:23:04.744Z,1.70
2022-10-14T23:25:32.409Z,2.07
2022-10-14T23:28:00.208Z,1.20
2022-10-14T23:30:27.974Z,1.27
2022-10-14T23:32:57.000Z,1.60
2022-10-14T23:35:24.650Z,1.47
2022-10-14T23:37:52.438Z,1.43
2022-10-14T23:40:20.190Z,1.40
2022-10-14T23:42:47.885Z,1.20
2022-10-14T23:45:15.673Z,1.57
2022-10-14T23:47:43.348Z,1.40
2022-10-14T23:50:12.551Z,1.50
2022-10-14T23:52:40.321Z,1.10
2022-10-14T23:55:08.864Z,1.20
2022-10-14T23:57:36.565Z,1.47
